sensor_id;sensor_type;location;lat;lon;timestamp;P1;durP1;ratioP1;P2;durP2;ratioP2
12886;SDS011;6511;49.746;6.094;2023-02-11T00:01:34;47.80;;;24.33;;
12886;SDS011;6511;49.746;6.094;2023-02-11T00:04:00;47.92;;;24.80;;
12886;SDS011;6511;49.746;6.094;2023-02-11T00:06:28;44.40;;;23.48;;
12886;SDS011;6511;49.746;6.094;2023-02-11T00:08:54;49.00;;;24.60;;
12886;SDS011;6511;49.746;6.094;2023-02-11T00:11:21;44.83;;;24.47;;
12886;SDS011;6511;49.746;6.094;2023-02-11T00:13:50;44.17;;;23.98;;
12886;SDS011;6511;49.746;6.094;2023-02-11T00:16:18;44.78;;;23.00;;
12886;SDS011;6511;49.746;6.094;2023-02-11T00:18:44;44.60;;;23.90;;
12886;SDS011;6511;49.746;6.094;2023-02-11T00:21:11;44.50;;;23.42;;
12886;SDS011;6511;49.746;6.094;2023-02-11T00:23:40;44.77;;;23.30;;
12886;SDS011;6511;49.746;6.094;2023-02-11T00:26:13;42.45;;;23.17;;
12886;SDS011;6511;49.746;6.094;2023-02-11T00:28:41;44.00;;;23.42;;
12886;SDS011;6511;49.746;6.094;2023-02-11T00:31:07;44.72;;;23.13;;
12886;SDS011;6511;49.746;6.094;2023-02-11T00:33:33;44.90;;;23.45;;
12886;SDS011;6511;49.746;6.094;2023-02-11T00:36:02;44.43;;;23.10;;
12886;SDS011;6511;49.746;6.094;2023-02-11T00:38:32;40.20;;;22.47;;
12886;SDS011;6511;49.746;6.094;2023-02-11T00:40:58;44.15;;;22.95;;
12886;SDS011;6511;49.746;6.094;2023-02-11T00:43:24;42.20;;;22.90;;
12886;SDS011;6511;49.746;6.094;2023-02-11T00:45:49;43.38;;;22.50;;
12886;SDS011;6511;49.746;6.094;2023-02-11T00:48:15;41.83;;;22.60;;
12886;SDS011;6511;49.746;6.094;2023-02-11T00:50:41;42.28;;;22.77;;
12886;SDS011;6511;49.746;6.094;2023-02-11T00:53:07;44.47;;;23.42;;
12886;SDS011;6511;49.746;6.094;2023-02-11T00:55:32;40.57;;;22.43;;
12886;SDS011;6511;49.746;6.094;2023-02-11T00:57:59;40.17;;;22.63;;
12886;SDS011;6511;49.746;6.094;2023-02-11T01:00:25;41.60;;;22.53;;
12886;SDS011;6511;49.746;6.094;2023-02-11T01:02:51;41.75;;;23.08;;
12886;SDS011;6511;49.746;6.094;2023-02-11T01:05:17;42.15;;;22.85;;
12886;SDS011;6511;49.746;6.094;2023-02-11T01:07:43;43.35;;;22.88;;
12886;SDS011;6511;49.746;6.094;2023-02-11T01:10:09;40.28;;;22.00;;
12886;SDS011;6511;49.746;6.094;2023-02-11T01:12:35;42.40;;;22.92;;
12886;SDS011;6511;49.746;6.094;2023-02-11T01:15:02;40.38;;;22.73;;
12886;SDS011;6511;49.746;6.094;2023-02-11T01:17:28;44.10;;;22.77;;
12886;SDS011;6511;49.746;6.094;2023-02-11T01:19:54;43.57;;;22.40;;
12886;SDS011;6511;49.746;6.094;2023-02-11T01:22:19;39.42;;;21.73;;
12886;SDS011;6511;49.746;6.094;2023-02-11T01:24:45;41.87;;;21.90;;
12886;SDS011;6511;49.746;6.094;2023-02-11T01:27:11;41.33;;;22.15;;
12886;SDS011;6511;49.746;6.094;2023-02-11T01:29:37;41.70;;;22.60;;
12886;SDS011;6511;49.746;6.094;2023-02-11T01:32:02;42.28;;;22.50;;
12886;SDS011;6511;49.746;6.094;2023-02-11T01:34:28;39.47;;;22.03;;
12886;SDS011;6511;49.746;6.094;2023-02-11T01:36:57;41.70;;;22.75;;
12886;SDS011;6511;49.746;6.094;2023-02-11T01:39:23;43.35;;;22.88;;
12886;SDS011;6511;49.746;6.094;2023-02-11T01:41:50;40.45;;;21.90;;
12886;SDS011;6511;49.746;6.094;2023-02-11T01:46:51;42.65;;;23.15;;
12886;SDS011;6511;49.746;6.094;2023-02-11T01:49:17;42.55;;;23.10;;
12886;SDS011;6511;49.746;6.094;2023-02-11T01:51:59;42.13;;;22.13;;
12886;SDS011;6511;49.746;6.094;2023-02-11T01:54:30;41.00;;;22.50;;
12886;SDS011;6511;49.746;6.094;2023-02-11T01:57:18;39.55;;;22.15;;
12886;SDS011;6511;49.746;6.094;2023-02-11T02:02:23;38.25;;;21.83;;
12886;SDS011;6511;49.746;6.094;2023-02-11T02:04:57;42.58;;;22.20;;
12886;SDS011;6511;49.746;6.094;2023-02-11T02:10:45;45.15;;;23.30;;
12886;SDS011;6511;49.746;6.094;2023-02-11T02:13:12;45.10;;;23.13;;
12886;SDS011;6511;49.746;6.094;2023-02-11T02:15:40;42.38;;;23.58;;
12886;SDS011;6511;49.746;6.094;2023-02-11T02:21:21;44.05;;;23.65;;
12886;SDS011;6511;49.746;6.094;2023-02-11T02:26:58;43.28;;;23.90;;
12886;SDS011;6511;49.746;6.094;2023-02-11T02:29:30;46.47;;;24.20;;
12886;SDS011;6511;49.746;6.094;2023-02-11T02:32:29;47.65;;;24.15;;
12886;SDS011;6511;49.746;6.094;2023-02-11T02:35:38;44.22;;;23.98;;
12886;SDS011;6511;49.746;6.094;2023-02-11T02:41:08;45.63;;;24.20;;
12886;SDS011;6511;49.746;6.094;2023-02-11T02:43:38;50.38;;;25.13;;
12886;SDS011;6511;49.746;6.094;2023-02-11T02:46:19;45.92;;;24.85;;
12886;SDS011;6511;49.746;6.094;2023-02-11T02:48:47;46.77;;;23.80;;
12886;SDS011;6511;49.746;6.094;2023-02-11T02:51:59;47.25;;;23.50;;
12886;SDS011;6511;49.746;6.094;2023-02-11T02:59:07;47.35;;;24.45;;
12886;SDS011;6511;49.746;6.094;2023-02-11T03:01:50;45.38;;;23.70;;
12886;SDS011;6511;49.746;6.094;2023-02-11T03:04:45;47.78;;;24.38;;
12886;SDS011;6511;49.746;6.094;2023-02-11T03:10:30;44.67;;;23.73;;
12886;SDS011;6511;49.746;6.094;2023-02-11T03:12:59;45.67;;;23.75;;
12886;SDS011;6511;49.746;6.094;2023-02-11T03:15:28;49.55;;;24.75;;
12886;SDS011;6511;49.746;6.094;2023-02-11T03:17:57;46.08;;;24.00;;
12886;SDS011;6511;49.746;6.094;2023-02-11T03:20:25;47.92;;;24.70;;
12886;SDS011;6511;49.746;6.094;2023-02-11T03:23:01;49.15;;;24.75;;
12886;SDS011;6511;49.746;6.094;2023-02-11T03:25:47;48.40;;;24.40;;
12886;SDS011;6511;49.746;6.094;2023-02-11T03:28:33;48.05;;;24.33;;
12886;SDS011;6511;49.746;6.094;2023-02-11T03:36:50;44.90;;;22.98;;
12886;SDS011;6511;49.746;6.094;2023-02-11T03:39:33;48.13;;;24.13;;
12886;SDS011;6511;49.746;6.094;2023-02-11T03:42:04;46.03;;;24.05;;
12886;SDS011;6511;49.746;6.094;2023-02-11T03:44:34;46.80;;;24.00;;
12886;SDS011;6511;49.746;6.094;2023-02-11T03:47:06;48.13;;;24.50;;
12886;SDS011;6511;49.746;6.094;2023-02-11T03:49:34;46.92;;;24.15;;
12886;SDS011;6511;49.746;6.094;2023-02-11T03:52:02;51.58;;;24.65;;
12886;SDS011;6511;49.746;6.094;2023-02-11T03:54:29;48.65;;;24.15;;
12886;SDS011;6511;49.746;6.094;2023-02-11T03:56:57;48.88;;;24.63;;
12886;SDS011;6511;49.746;6.094;2023-02-11T03:59:24;52.42;;;25.35;;
12886;SDS011;6511;49.746;6.094;2023-02-11T04:01:50;52.17;;;25.15;;
12886;SDS011;6511;49.746;6.094;2023-02-11T04:04:17;52.07;;;25.40;;
12886;SDS011;6511;49.746;6.094;2023-02-11T04:06:43;50.67;;;25.88;;
12886;SDS011;6511;49.746;6.094;2023-02-11T04:09:09;52.15;;;25.75;;
12886;SDS011;6511;49.746;6.094;2023-02-11T04:11:35;55.30;;;26.00;;
12886;SDS011;6511;49.746;6.094;2023-02-11T04:14:01;51.58;;;26.02;;
12886;SDS011;6511;49.746;6.094;2023-02-11T04:16:27;52.22;;;25.27;;
12886;SDS011;6511;49.746;6.094;2023-02-11T04:18:54;53.50;;;25.90;;
12886;SDS011;6511;49.746;6.094;2023-02-11T04:21:20;56.60;;;26.67;;
12886;SDS011;6511;49.746;6.094;2023-02-11T04:23:46;63.38;;;27.95;;
12886;SDS011;6511;49.746;6.094;2023-02-11T04:26:12;62.17;;;28.27;;
12886;SDS011;6511;49.746;6.094;2023-02-11T04:28:38;59.42;;;27.73;;
12886;SDS011;6511;49.746;6.094;2023-02-11T04:31:03;54.10;;;26.33;;
12886;SDS011;6511;49.746;6.094;2023-02-11T04:33:29;56.70;;;26.60;;
12886;SDS011;6511;49.746;6.094;2023-02-11T04:35:55;58.37;;;27.17;;
12886;SDS011;6511;49.746;6.094;2023-02-11T04:38:20;69.80;;;29.40;;
12886;SDS011;6511;49.746;6.094;2023-02-11T04:40:48;69.38;;;29.10;;
12886;SDS011;6511;49.746;6.094;2023-02-11T04:43:14;63.58;;;28.88;;
12886;SDS011;6511;49.746;6.094;2023-02-11T04:45:40;69.87;;;29.97;;
12886;SDS011;6511;49.746;6.094;2023-02-11T04:48:05;64.07;;;28.02;;
12886;SDS011;6511;49.746;6.094;2023-02-11T04:50:31;61.33;;;27.33;;
12886;SDS011;6511;49.746;6.094;2023-02-11T04:52:57;65.07;;;28.15;;
12886;SDS011;6511;49.746;6.094;2023-02-11T04:55:22;66.43;;;29.50;;
12886;SDS011;6511;49.746;6.094;2023-02-11T04:57:48;64.88;;;27.67;;
12886;SDS011;6511;49.746;6.094;2023-02-11T05:00:14;62.37;;;27.93;;
12886;SDS011;6511;49.746;6.094;2023-02-11T05:02:40;65.03;;;27.80;;
12886;SDS011;6511;49.746;6.094;2023-02-11T05:05:05;65.03;;;28.13;;
12886;SDS011;6511;49.746;6.094;2023-02-11T05:07:31;66.63;;;29.17;;
12886;SDS011;6511;49.746;6.094;2023-02-11T05:09:57;72.22;;;30.17;;
12886;SDS011;6511;49.746;6.094;2023-02-11T05:12:22;69.33;;;29.33;;
12886;SDS011;6511;49.746;6.094;2023-02-11T05:14:48;71.38;;;29.63;;
12886;SDS011;6511;49.746;6.094;2023-02-11T05:17:14;71.40;;;30.07;;
12886;SDS011;6511;49.746;6.094;2023-02-11T05:19:40;72.55;;;30.40;;
12886;SDS011;6511;49.746;6.094;2023-02-11T05:22:06;70.00;;;29.57;;
12886;SDS011;6511;49.746;6.094;2023-02-11T05:24:32;69.97;;;29.08;;
12886;SDS011;6511;49.746;6.094;2023-02-11T05:26:58;69.03;;;29.17;;
12886;SDS011;6511;49.746;6.094;2023-02-11T05:29:24;70.72;;;29.38;;
12886;SDS011;6511;49.746;6.094;2023-02-11T05:31:50;71.57;;;29.87;;
12886;SDS011;6511;49.746;6.094;2023-02-11T05:34:16;72.88;;;30.52;;
12886;SDS011;6511;49.746;6.094;2023-02-11T05:36:42;72.18;;;29.75;;
12886;SDS011;6511;49.746;6.094;2023-02-11T05:39:07;73.90;;;30.67;;
12886;SDS011;6511;49.746;6.094;2023-02-11T05:41:33;79.10;;;31.73;;
12886;SDS011;6511;49.746;6.094;2023-02-11T05:43:59;74.70;;;30.37;;
12886;SDS011;6511;49.746;6.094;2023-02-11T05:46:24;75.13;;;30.30;;
12886;SDS011;6511;49.746;6.094;2023-02-11T05:48:50;71.90;;;30.90;;
12886;SDS011;6511;49.746;6.094;2023-02-11T05:51:16;65.10;;;28.95;;
12886;SDS011;6511;49.746;6.094;2023-02-11T05:53:41;66.97;;;28.60;;
12886;SDS011;6511;49.746;6.094;2023-02-11T05:56:07;62.10;;;28.13;;
12886;SDS011;6511;49.746;6.094;2023-02-11T05:58:34;66.03;;;28.30;;
12886;SDS011;6511;49.746;6.094;2023-02-11T06:00:59;58.00;;;27.63;;
12886;SDS011;6511;49.746;6.094;2023-02-11T06:03:25;58.57;;;26.33;;
12886;SDS011;6511;49.746;6.094;2023-02-11T06:05:51;59.05;;;27.58;;
12886;SDS011;6511;49.746;6.094;2023-02-11T06:08:17;64.20;;;28.20;;
12886;SDS011;6511;49.746;6.094;2023-02-11T06:10:45;60.10;;;27.08;;
12886;SDS011;6511;49.746;6.094;2023-02-11T06:13:11;58.35;;;26.70;;
12886;SDS011;6511;49.746;6.094;2023-02-11T06:15:37;49.65;;;24.73;;
12886;SDS011;6511;49.746;6.094;2023-02-11T06:18:03;52.70;;;25.07;;
12886;SDS011;6511;49.746;6.094;2023-02-11T06:20:29;51.90;;;24.33;;
12886;SDS011;6511;49.746;6.094;2023-02-11T06:22:54;46.97;;;23.90;;
12886;SDS011;6511;49.746;6.094;2023-02-11T06:25:20;47.60;;;23.97;;
12886;SDS011;6511;49.746;6.094;2023-02-11T06:27:46;49.60;;;24.27;;
12886;SDS011;6511;49.746;6.094;2023-02-11T06:30:11;53.10;;;25.07;;
12886;SDS011;6511;49.746;6.094;2023-02-11T06:32:38;47.78;;;24.73;;
12886;SDS011;6511;49.746;6.094;2023-02-11T06:35:03;49.08;;;25.02;;
12886;SDS011;6511;49.746;6.094;2023-02-11T06:37:29;51.42;;;25.40;;
12886;SDS011;6511;49.746;6.094;2023-02-11T06:39:55;49.33;;;25.10;;
12886;SDS011;6511;49.746;6.094;2023-02-11T06:42:20;49.43;;;25.07;;
12886;SDS011;6511;49.746;6.094;2023-02-11T06:44:46;51.25;;;25.75;;
12886;SDS011;6511;49.746;6.094;2023-02-11T06:47:11;53.40;;;26.70;;
12886;SDS011;6511;49.746;6.094;2023-02-11T06:49:37;53.42;;;25.55;;
12886;SDS011;6511;49.746;6.094;2023-02-11T06:52:03;53.77;;;26.50;;
12886;SDS011;6511;49.746;6.094;2023-02-11T06:54:29;54.35;;;25.70;;
12886;SDS011;6511;49.746;6.094;2023-02-11T06:56:54;53.10;;;25.93;;
12886;SDS011;6511;49.746;6.094;2023-02-11T06:59:20;52.50;;;26.67;;
12886;SDS011;6511;49.746;6.094;2023-02-11T07:01:46;52.77;;;25.70;;
12886;SDS011;6511;49.746;6.094;2023-02-11T07:04:12;47.22;;;24.65;;
12886;SDS011;6511;49.746;6.094;2023-02-11T07:06:39;44.27;;;23.20;;
12886;SDS011;6511;49.746;6.094;2023-02-11T07:09:08;45.75;;;25.15;;
12886;SDS011;6511;49.746;6.094;2023-02-11T07:11:34;46.60;;;24.13;;
12886;SDS011;6511;49.746;6.094;2023-02-11T07:14:01;49.65;;;25.17;;
12886;SDS011;6511;49.746;6.094;2023-02-11T07:16:30;51.42;;;25.48;;
12886;SDS011;6511;49.746;6.094;2023-02-11T07:18:56;51.22;;;25.27;;
12886;SDS011;6511;49.746;6.094;2023-02-11T07:21:22;49.17;;;26.40;;
12886;SDS011;6511;49.746;6.094;2023-02-11T07:23:51;50.92;;;25.67;;
12886;SDS011;6511;49.746;6.094;2023-02-11T07:26:18;52.13;;;25.40;;
12886;SDS011;6511;49.746;6.094;2023-02-11T07:28:47;48.33;;;24.88;;
12886;SDS011;6511;49.746;6.094;2023-02-11T07:31:21;46.28;;;24.60;;
12886;SDS011;6511;49.746;6.094;2023-02-11T07:33:50;48.30;;;24.92;;
12886;SDS011;6511;49.746;6.094;2023-02-11T07:36:17;46.27;;;24.63;;
12886;SDS011;6511;49.746;6.094;2023-02-11T07:38:43;46.17;;;24.63;;
12886;SDS011;6511;49.746;6.094;2023-02-11T07:41:10;45.27;;;23.80;;
12886;SDS011;6511;49.746;6.094;2023-02-11T07:43:39;44.33;;;24.30;;
12886;SDS011;6511;49.746;6.094;2023-02-11T07:46:09;43.80;;;22.95;;
12886;SDS011;6511;49.746;6.094;2023-02-11T07:48:37;47.13;;;25.02;;
12886;SDS011;6511;49.746;6.094;2023-02-11T07:51:08;46.40;;;23.70;;
12886;SDS011;6511;49.746;6.094;2023-02-11T07:53:36;41.30;;;22.53;;
12886;SDS011;6511;49.746;6.094;2023-02-11T07:56:03;44.97;;;23.10;;
12886;SDS011;6511;49.746;6.094;2023-02-11T07:58:29;42.58;;;23.02;;
12886;SDS011;6511;49.746;6.094;2023-02-11T08:00:59;44.63;;;24.27;;
12886;SDS011;6511;49.746;6.094;2023-02-11T08:03:26;44.70;;;23.60;;
12886;SDS011;6511;49.746;6.094;2023-02-11T08:05:52;41.73;;;23.50;;
12886;SDS011;6511;49.746;6.094;2023-02-11T08:08:17;44.38;;;23.92;;
12886;SDS011;6511;49.746;6.094;2023-02-11T08:10:43;46.27;;;25.00;;
12886;SDS011;6511;49.746;6.094;2023-02-11T08:13:09;46.40;;;24.08;;
12886;SDS011;6511;49.746;6.094;2023-02-11T08:15:34;47.27;;;24.30;;
12886;SDS011;6511;49.746;6.094;2023-02-11T08:18:00;43.07;;;23.67;;
12886;SDS011;6511;49.746;6.094;2023-02-11T08:20:26;44.38;;;24.58;;
12886;SDS011;6511;49.746;6.094;2023-02-11T08:22:51;47.57;;;25.03;;
12886;SDS011;6511;49.746;6.094;2023-02-11T08:25:17;50.60;;;26.45;;
12886;SDS011;6511;49.746;6.094;2023-02-11T08:27:43;49.20;;;25.83;;
12886;SDS011;6511;49.746;6.094;2023-02-11T08:30:08;44.90;;;24.45;;
12886;SDS011;6511;49.746;6.094;2023-02-11T08:32:34;44.75;;;24.08;;
12886;SDS011;6511;49.746;6.094;2023-02-11T08:35:00;46.17;;;24.40;;
12886;SDS011;6511;49.746;6.094;2023-02-11T08:37:26;67.10;;;36.57;;
12886;SDS011;6511;49.746;6.094;2023-02-11T08:39:52;45.63;;;24.50;;
12886;SDS011;6511;49.746;6.094;2023-02-11T08:42:17;49.17;;;26.27;;
12886;SDS011;6511;49.746;6.094;2023-02-11T08:44:43;53.60;;;29.95;;
12886;SDS011;6511;49.746;6.094;2023-02-11T08:47:09;55.60;;;30.00;;
12886;SDS011;6511;49.746;6.094;2023-02-11T08:49:34;51.92;;;29.17;;
12886;SDS011;6511;49.746;6.094;2023-02-11T08:52:00;49.20;;;27.95;;
12886;SDS011;6511;49.746;6.094;2023-02-11T08:54:28;51.93;;;28.17;;
12886;SDS011;6511;49.746;6.094;2023-02-11T08:56:55;46.47;;;25.42;;
12886;SDS011;6511;49.746;6.094;2023-02-11T08:59:21;45.53;;;24.23;;
12886;SDS011;6511;49.746;6.094;2023-02-11T09:01:47;46.17;;;24.88;;
12886;SDS011;6511;49.746;6.094;2023-02-11T09:04:13;45.93;;;24.77;;
12886;SDS011;6511;49.746;6.094;2023-02-11T09:06:39;45.85;;;24.50;;
12886;SDS011;6511;49.746;6.094;2023-02-11T09:09:05;46.83;;;24.67;;
12886;SDS011;6511;49.746;6.094;2023-02-11T09:11:32;42.30;;;23.60;;
12886;SDS011;6511;49.746;6.094;2023-02-11T09:13:59;43.90;;;23.35;;
12886;SDS011;6511;49.746;6.094;2023-02-11T09:16:26;44.73;;;23.80;;
12886;SDS011;6511;49.746;6.094;2023-02-11T09:18:55;44.05;;;24.25;;
12886;SDS011;6511;49.746;6.094;2023-02-11T09:21:21;42.15;;;24.02;;
12886;SDS011;6511;49.746;6.094;2023-02-11T09:23:47;42.87;;;24.27;;
12886;SDS011;6511;49.746;6.094;2023-02-11T09:26:14;46.28;;;24.40;;
12886;SDS011;6511;49.746;6.094;2023-02-11T09:28:43;45.22;;;24.30;;
12886;SDS011;6511;49.746;6.094;2023-02-11T09:31:10;46.40;;;25.48;;
12886;SDS011;6511;49.746;6.094;2023-02-11T09:33:38;45.28;;;24.40;;
12886;SDS011;6511;49.746;6.094;2023-02-11T09:36:12;40.43;;;23.00;;
12886;SDS011;6511;49.746;6.094;2023-02-11T09:38:43;41.88;;;23.20;;
12886;SDS011;6511;49.746;6.094;2023-02-11T09:43:57;41.88;;;23.55;;
12886;SDS011;6511;49.746;6.094;2023-02-11T09:46:30;41.83;;;22.70;;
12886;SDS011;6511;49.746;6.094;2023-02-11T09:48:59;40.75;;;23.55;;
12886;SDS011;6511;49.746;6.094;2023-02-11T09:54:14;41.63;;;23.60;;
12886;SDS011;6511;49.746;6.094;2023-02-11T09:56:52;39.83;;;22.90;;
12886;SDS011;6511;49.746;6.094;2023-02-11T09:59:17;40.67;;;22.02;;
12886;SDS011;6511;49.746;6.094;2023-02-11T10:06:54;36.38;;;21.52;;
12886;SDS011;6511;49.746;6.094;2023-02-11T10:09:26;37.37;;;21.10;;
12886;SDS011;6511;49.746;6.094;2023-02-11T10:12:20;35.50;;;20.30;;
12886;SDS011;6511;49.746;6.094;2023-02-11T10:15:13;35.95;;;20.88;;
12886;SDS011;6511;49.746;6.094;2023-02-11T10:25:49;32.70;;;19.08;;
12886;SDS011;6511;49.746;6.094;2023-02-11T10:28:21;54.23;;;29.83;;
12886;SDS011;6511;49.746;6.094;2023-02-11T10:31:07;29.48;;;17.88;;
12886;SDS011;6511;49.746;6.094;2023-02-11T10:33:43;31.75;;;17.67;;
12886;SDS011;6511;49.746;6.094;2023-02-11T10:36:10;29.73;;;17.55;;
12886;SDS011;6511;49.746;6.094;2023-02-11T10:38:38;29.30;;;17.73;;
12886;SDS011;6511;49.746;6.094;2023-02-11T10:41:04;27.67;;;17.65;;
12886;SDS011;6511;49.746;6.094;2023-02-11T10:43:31;28.30;;;17.23;;
12886;SDS011;6511;49.746;6.094;2023-02-11T10:45:58;29.37;;;18.73;;
12886;SDS011;6511;49.746;6.094;2023-02-11T10:48:40;29.27;;;18.20;;
12886;SDS011;6511;49.746;6.094;2023-02-11T10:53:35;32.03;;;18.65;;
12886;SDS011;6511;49.746;6.094;2023-02-11T10:56:01;27.77;;;16.42;;
12886;SDS011;6511;49.746;6.094;2023-02-11T10:58:33;29.42;;;16.98;;
12886;SDS011;6511;49.746;6.094;2023-02-11T11:01:05;26.27;;;16.38;;
12886;SDS011;6511;49.746;6.094;2023-02-11T11:03:33;26.90;;;16.27;;
12886;SDS011;6511;49.746;6.094;2023-02-11T11:06:09;27.00;;;15.93;;
12886;SDS011;6511;49.746;6.094;2023-02-11T11:11:08;25.27;;;15.43;;
12886;SDS011;6511;49.746;6.094;2023-02-11T11:13:39;23.63;;;14.73;;
12886;SDS011;6511;49.746;6.094;2023-02-11T11:16:19;23.58;;;14.50;;
12886;SDS011;6511;49.746;6.094;2023-02-11T11:18:51;21.33;;;13.02;;
12886;SDS011;6511;49.746;6.094;2023-02-11T11:21:34;19.23;;;12.45;;
12886;SDS011;6511;49.746;6.094;2023-02-11T11:24:05;20.45;;;13.05;;
12886;SDS011;6511;49.746;6.094;2023-02-11T11:26:54;18.00;;;11.73;;
12886;SDS011;6511;49.746;6.094;2023-02-11T11:32:04;20.75;;;12.07;;
12886;SDS011;6511;49.746;6.094;2023-02-11T11:34:50;18.55;;;12.18;;
12886;SDS011;6511;49.746;6.094;2023-02-11T11:42:34;19.10;;;11.13;;
12886;SDS011;6511;49.746;6.094;2023-02-11T11:56:03;21.53;;;12.60;;
12886;SDS011;6511;49.746;6.094;2023-02-11T11:58:37;19.80;;;12.05;;
12886;SDS011;6511;49.746;6.094;2023-02-11T12:07:29;15.68;;;9.30;;
12886;SDS011;6511;49.746;6.094;2023-02-11T12:10:06;15.90;;;9.65;;
12886;SDS011;6511;49.746;6.094;2023-02-11T12:12:39;17.27;;;9.65;;
12886;SDS011;6511;49.746;6.094;2023-02-11T12:20:54;18.63;;;11.25;;
12886;SDS011;6511;49.746;6.094;2023-02-11T12:28:45;20.90;;;12.52;;
12886;SDS011;6511;49.746;6.094;2023-02-11T12:56:20;16.45;;;10.10;;
12886;SDS011;6511;49.746;6.094;2023-02-11T12:59:03;16.13;;;9.90;;
12886;SDS011;6511;49.746;6.094;2023-02-11T13:01:35;16.73;;;10.00;;
12886;SDS011;6511;49.746;6.094;2023-02-11T13:06:34;17.05;;;9.93;;
12886;SDS011;6511;49.746;6.094;2023-02-11T13:09:08;15.95;;;10.10;;
12886;SDS011;6511;49.746;6.094;2023-02-11T13:11:49;15.65;;;9.43;;
12886;SDS011;6511;49.746;6.094;2023-02-11T13:14:36;16.15;;;9.55;;
12886;SDS011;6511;49.746;6.094;2023-02-11T13:17:09;17.10;;;10.35;;
12886;SDS011;6511;49.746;6.094;2023-02-11T13:19:44;16.10;;;9.95;;
12886;SDS011;6511;49.746;6.094;2023-02-11T13:22:30;15.48;;;9.40;;
12886;SDS011;6511;49.746;6.094;2023-02-11T13:25:23;16.08;;;9.70;;
12886;SDS011;6511;49.746;6.094;2023-02-11T13:30:44;15.43;;;9.40;;
12886;SDS011;6511;49.746;6.094;2023-02-11T13:35:44;15.57;;;9.15;;
12886;SDS011;6511;49.746;6.094;2023-02-11T13:38:23;14.90;;;8.95;;
12886;SDS011;6511;49.746;6.094;2023-02-11T13:41:01;14.35;;;9.23;;
12886;SDS011;6511;49.746;6.094;2023-02-11T13:43:39;14.30;;;9.23;;
12886;SDS011;6511;49.746;6.094;2023-02-11T13:46:06;15.55;;;9.27;;
12886;SDS011;6511;49.746;6.094;2023-02-11T13:48:36;14.35;;;9.27;;
12886;SDS011;6511;49.746;6.094;2023-02-11T13:51:16;15.87;;;9.67;;
12886;SDS011;6511;49.746;6.094;2023-02-11T13:53:57;14.48;;;9.10;;
12886;SDS011;6511;49.746;6.094;2023-02-11T13:56:28;15.65;;;9.65;;
12886;SDS011;6511;49.746;6.094;2023-02-11T13:59:00;13.90;;;8.90;;
12886;SDS011;6511;49.746;6.094;2023-02-11T14:11:00;15.70;;;9.90;;
12886;SDS011;6511;49.746;6.094;2023-02-11T14:16:19;15.30;;;9.45;;
12886;SDS011;6511;49.746;6.094;2023-02-11T14:23:51;16.33;;;9.77;;
12886;SDS011;6511;49.746;6.094;2023-02-11T14:28:45;16.92;;;9.82;;
12886;SDS011;6511;49.746;6.094;2023-02-11T14:31:26;18.25;;;10.70;;
12886;SDS011;6511;49.746;6.094;2023-02-11T14:34:20;16.73;;;10.15;;
12886;SDS011;6511;49.746;6.094;2023-02-11T14:37:07;17.67;;;9.80;;
12886;SDS011;6511;49.746;6.094;2023-02-11T14:42:17;17.58;;;10.02;;
12886;SDS011;6511;49.746;6.094;2023-02-11T14:44:49;17.50;;;10.18;;
12886;SDS011;6511;49.746;6.094;2023-02-11T14:47:20;15.57;;;9.80;;
12886;SDS011;6511;49.746;6.094;2023-02-11T14:49:51;16.17;;;9.40;;
12886;SDS011;6511;49.746;6.094;2023-02-11T14:52:33;16.00;;;9.68;;
12886;SDS011;6511;49.746;6.094;2023-02-11T14:55:15;15.25;;;9.50;;
12886;SDS011;6511;49.746;6.094;2023-02-11T15:03:31;16.60;;;9.73;;
12886;SDS011;6511;49.746;6.094;2023-02-11T15:05:58;17.58;;;10.38;;
12886;SDS011;6511;49.746;6.094;2023-02-11T15:08:47;15.60;;;10.00;;
12886;SDS011;6511;49.746;6.094;2023-02-11T15:11:17;16.80;;;10.20;;
12886;SDS011;6511;49.746;6.094;2023-02-11T15:13:46;16.17;;;9.57;;
12886;SDS011;6511;49.746;6.094;2023-02-11T15:16:21;14.77;;;9.35;;
12886;SDS011;6511;49.746;6.094;2023-02-11T15:18:49;17.23;;;9.95;;
12886;SDS011;6511;49.746;6.094;2023-02-11T15:21:19;15.60;;;9.55;;
12886;SDS011;6511;49.746;6.094;2023-02-11T15:23:58;15.98;;;9.40;;
12886;SDS011;6511;49.746;6.094;2023-02-11T15:26:30;15.52;;;9.23;;
12886;SDS011;6511;49.746;6.094;2023-02-11T15:28:56;14.77;;;9.18;;
12886;SDS011;6511;49.746;6.094;2023-02-11T15:31:23;15.82;;;9.13;;
12886;SDS011;6511;49.746;6.094;2023-02-11T15:33:51;16.17;;;8.97;;
12886;SDS011;6511;49.746;6.094;2023-02-11T15:36:18;13.18;;;8.75;;
12886;SDS011;6511;49.746;6.094;2023-02-11T15:39:14;15.07;;;8.77;;
12886;SDS011;6511;49.746;6.094;2023-02-11T15:41:42;13.45;;;8.30;;
12886;SDS011;6511;49.746;6.094;2023-02-11T15:44:25;13.20;;;8.45;;
12886;SDS011;6511;49.746;6.094;2023-02-11T15:46:52;13.18;;;8.75;;
12886;SDS011;6511;49.746;6.094;2023-02-11T15:49:18;14.25;;;8.40;;
12886;SDS011;6511;49.746;6.094;2023-02-11T15:51:45;14.52;;;8.65;;
12886;SDS011;6511;49.746;6.094;2023-02-11T15:54:15;13.93;;;8.98;;
12886;SDS011;6511;49.746;6.094;2023-02-11T15:56:48;16.15;;;9.35;;
12886;SDS011;6511;49.746;6.094;2023-02-11T15:59:16;15.70;;;9.47;;
12886;SDS011;6511;49.746;6.094;2023-02-11T16:01:52;15.55;;;9.13;;
12886;SDS011;6511;49.746;6.094;2023-02-11T16:04:20;15.60;;;9.52;;
12886;SDS011;6511;49.746;6.094;2023-02-11T16:06:47;14.30;;;9.18;;
12886;SDS011;6511;49.746;6.094;2023-02-11T16:16:57;16.02;;;9.48;;
12886;SDS011;6511;49.746;6.094;2023-02-11T16:19:40;16.20;;;9.50;;
12886;SDS011;6511;49.746;6.094;2023-02-11T16:22:09;16.97;;;9.83;;
12886;SDS011;6511;49.746;6.094;2023-02-11T16:24:39;16.38;;;9.73;;
12886;SDS011;6511;49.746;6.094;2023-02-11T16:29:46;16.92;;;10.10;;
12886;SDS011;6511;49.746;6.094;2023-02-11T16:32:17;18.10;;;10.75;;
12886;SDS011;6511;49.746;6.094;2023-02-11T16:34:45;19.13;;;10.82;;
12886;SDS011;6511;49.746;6.094;2023-02-11T16:37:11;17.50;;;10.03;;
12886;SDS011;6511;49.746;6.094;2023-02-11T16:39:36;16.83;;;9.73;;
12886;SDS011;6511;49.746;6.094;2023-02-11T16:42:02;18.63;;;10.70;;
12886;SDS011;6511;49.746;6.094;2023-02-11T16:44:28;15.97;;;10.17;;
12886;SDS011;6511;49.746;6.094;2023-02-11T16:46:54;17.65;;;10.43;;
12886;SDS011;6511;49.746;6.094;2023-02-11T16:51:50;17.35;;;10.80;;
12886;SDS011;6511;49.746;6.094;2023-02-11T16:54:17;18.75;;;11.10;;
12886;SDS011;6511;49.746;6.094;2023-02-11T16:56:44;18.55;;;10.93;;
12886;SDS011;6511;49.746;6.094;2023-02-11T16:59:10;19.92;;;10.90;;
12886;SDS011;6511;49.746;6.094;2023-02-11T17:01:36;17.48;;;10.50;;
12886;SDS011;6511;49.746;6.094;2023-02-11T17:04:03;17.95;;;10.38;;
12886;SDS011;6511;49.746;6.094;2023-02-11T17:06:30;17.08;;;10.40;;
12886;SDS011;6511;49.746;6.094;2023-02-11T17:08:58;18.08;;;10.98;;
12886;SDS011;6511;49.746;6.094;2023-02-11T17:11:24;19.75;;;11.18;;
12886;SDS011;6511;49.746;6.094;2023-02-11T17:13:49;18.97;;;11.23;;
12886;SDS011;6511;49.746;6.094;2023-02-11T17:16:16;19.90;;;11.87;;
12886;SDS011;6511;49.746;6.094;2023-02-11T17:18:43;20.65;;;11.95;;
12886;SDS011;6511;49.746;6.094;2023-02-11T17:21:09;19.73;;;11.63;;
12886;SDS011;6511;49.746;6.094;2023-02-11T17:23:35;20.75;;;12.07;;
12886;SDS011;6511;49.746;6.094;2023-02-11T17:26:01;21.80;;;12.55;;
12886;SDS011;6511;49.746;6.094;2023-02-11T17:28:27;19.85;;;12.48;;
12886;SDS011;6511;49.746;6.094;2023-02-11T17:30:53;24.63;;;13.13;;
12886;SDS011;6511;49.746;6.094;2023-02-11T17:33:18;21.30;;;12.45;;
12886;SDS011;6511;49.746;6.094;2023-02-11T17:35:44;20.60;;;12.13;;